sensor_id;sensor_type;location;lat;lon;timestamp;pressure;altitude;pressure_sealevel;temperature;humidity
75146;BME280;63641;46.526;24.612;2023-04-24T00:01:14;96864.47;;;7.74;65.03
75146;BME280;63641;46.526;24.612;2023-04-24T00:03:41;96865.84;;;7.67;65.35
75146;BME280;63641;46.526;24.612;2023-04-24T00:06:09;96854.53;;;7.55;65.69
75146;BME280;63641;46.526;24.612;2023-04-24T00:08:35;96864.78;;;7.58;65.62
75146;BME280;63641;46.526;24.612;2023-04-24T00:11:03;96858.88;;;7.56;65.80
75146;BME280;63641;46.526;24.612;2023-04-24T00:13:29;96863.19;;;7.52;65.76
75146;BME280;63641;46.526;24.612;2023-04-24T00:15:56;96848.38;;;7.49;65.74
75146;BME280;63641;46.526;24.612;2023-04-24T00:18:23;96849.72;;;7.46;65.82
75146;BME280;63641;46.526;24.612;2023-04-24T00:20:50;96854.59;;;7.44;65.86
75146;BME280;63641;46.526;24.612;2023-04-24T00:23:16;96854.84;;;7.48;65.85
75146;BME280;63641;46.526;24.612;2023-04-24T00:25:43;96849.22;;;7.44;65.76
75146;BME280;63641;46.526;24.612;2023-04-24T00:28:10;96854.34;;;7.41;65.75
75146;BME280;63641;46.526;24.612;2023-04-24T00:30:37;96843.03;;;7.34;65.88
75146;BME280;63641;46.526;24.612;2023-04-24T00:33:03;96856.22;;;7.35;65.91
75146;BME280;63641;46.526;24.612;2023-04-24T00:35:30;96843.31;;;7.27;65.92
75146;BME280;63641;46.526;24.612;2023-04-24T00:37:57;96847.34;;;7.24;65.93
75146;BME280;63641;46.526;24.612;2023-04-24T00:40:24;96851.66;;;7.20;65.91
75146;BME280;63641;46.526;24.612;2023-04-24T00:42:51;96837.16;;;7.11;66.23
75146;BME280;63641;46.526;24.612;2023-04-24T00:45:18;96852.50;;;7.11;66.02
75146;BME280;63641;46.526;24.612;2023-04-24T00:47:45;96853.03;;;7.08;66.24
75146;BME280;63641;46.526;24.612;2023-04-24T00:50:14;96843.34;;;7.01;66.34
75146;BME280;63641;46.526;24.612;2023-04-24T00:52:41;96840.38;;;6.98;66.32
75146;BME280;63641;46.526;24.612;2023-04-24T00:55:09;96839.84;;;6.91;66.33
75146;BME280;63641;46.526;24.612;2023-04-24T00:57:36;96836.34;;;6.85;66.43
75146;BME280;63641;46.526;24.612;2023-04-24T01:00:05;96832.03;;;6.79;66.44
75146;BME280;63641;46.526;24.612;2023-04-24T01:02:32;96825.84;;;6.73;66.82
75146;BME280;63641;46.526;24.612;2023-04-24T01:05:01;96815.91;;;6.69;66.65
75146;BME280;63641;46.526;24.612;2023-04-24T01:07:28;96829.91;;;6.71;66.89
75146;BME280;63641;46.526;24.612;2023-04-24T01:09:55;96812.94;;;6.65;67.16
75146;BME280;63641;46.526;24.612;2023-04-24T01:12:22;96819.41;;;6.69;67.03
75146;BME280;63641;46.526;24.612;2023-04-24T01:14:49;96820.75;;;6.67;67.15
75146;BME280;63641;46.526;24.612;2023-04-24T01:17:16;96823.16;;;6.68;67.23
75146;BME280;63641;46.526;24.612;2023-04-24T01:19:42;96810.00;;;6.62;67.06
75146;BME280;63641;46.526;24.612;2023-04-24T01:22:14;96818.34;;;6.60;67.15
75146;BME280;63641;46.526;24.612;2023-04-24T01:24:41;96815.38;;;6.57;67.35
75146;BME280;63641;46.526;24.612;2023-04-24T01:27:10;96812.66;;;6.51;66.94
75146;BME280;63641;46.526;24.612;2023-04-24T01:29:36;96813.75;;;6.45;67.25
75146;BME280;63641;46.526;24.612;2023-04-24T01:32:04;96814.84;;;6.44;66.85
75146;BME280;63641;46.526;24.612;2023-04-24T01:34:32;96808.63;;;6.39;67.27
75146;BME280;63641;46.526;24.612;2023-04-24T01:36:58;96815.34;;;6.36;67.27
75146;BME280;63641;46.526;24.612;2023-04-24T01:39:26;96813.72;;;6.35;67.40
75146;BME280;63641;46.526;24.612;2023-04-24T01:41:55;96815.34;;;6.26;67.38
75146;BME280;63641;46.526;24.612;2023-04-24T01:44:22;96813.97;;;6.23;67.65
75146;BME280;63641;46.526;24.612;2023-04-24T01:46:49;96811.03;;;6.20;67.36
75146;BME280;63641;46.526;24.612;2023-04-24T01:49:17;96808.56;;;6.18;67.46
75146;BME280;63641;46.526;24.612;2023-04-24T01:51:44;96802.13;;;6.14;67.56
75146;BME280;63641;46.526;24.612;2023-04-24T01:54:11;96806.69;;;6.14;67.95
75146;BME280;63641;46.526;24.612;2023-04-24T01:56:42;96811.53;;;6.12;67.77
75146;BME280;63641;46.526;24.612;2023-04-24T01:59:10;96804.00;;;6.09;68.18
75146;BME280;63641;46.526;24.612;2023-04-24T02:01:38;96799.69;;;6.02;68.06
75146;BME280;63641;46.526;24.612;2023-04-24T02:04:06;96791.63;;;6.02;68.06
75146;BME280;63641;46.526;24.612;2023-04-24T02:06:33;96801.00;;;6.00;68.03
75146;BME280;63641;46.526;24.612;2023-04-24T02:09:00;96799.66;;;5.92;68.11
75146;BME280;63641;46.526;24.612;2023-04-24T02:11:27;96797.53;;;5.94;68.32
75146;BME280;63641;46.526;24.612;2023-04-24T02:13:54;96796.94;;;5.87;68.22
75146;BME280;63641;46.526;24.612;2023-04-24T02:16:21;96799.63;;;5.87;68.23
75146;BME280;63641;46.526;24.612;2023-04-24T02:18:48;96806.06;;;5.86;68.51
75146;BME280;63641;46.526;24.612;2023-04-24T02:21:14;96794.25;;;5.82;68.47
75146;BME280;63641;46.526;24.612;2023-04-24T02:23:41;96796.59;;;5.73;68.73
75146;BME280;63641;46.526;24.612;2023-04-24T02:26:08;96795.81;;;5.73;68.48
75146;BME280;63641;46.526;24.612;2023-04-24T02:28:35;96786.66;;;5.69;68.85
75146;BME280;63641;46.526;24.612;2023-04-24T02:31:01;96787.72;;;5.63;68.70
75146;BME280;63641;46.526;24.612;2023-04-24T02:33:28;96792.28;;;5.62;68.88
75146;BME280;63641;46.526;24.612;2023-04-24T02:35:55;96783.13;;;5.58;69.12
75146;BME280;63641;46.526;24.612;2023-04-24T02:38:22;96779.88;;;5.51;69.24
75146;BME280;63641;46.526;24.612;2023-04-24T02:40:49;96791.47;;;5.56;69.20
75146;BME280;63641;46.526;24.612;2023-04-24T02:43:15;96785.25;;;5.51;69.29
75146;BME280;63641;46.526;24.612;2023-04-24T02:45:42;96789.25;;;5.48;69.39
75146;BME280;63641;46.526;24.612;2023-04-24T02:48:09;96789.25;;;5.48;69.44
75146;BME280;63641;46.526;24.612;2023-04-24T02:50:36;96788.72;;;5.46;69.32
75146;BME280;63641;46.526;24.612;2023-04-24T02:53:03;96784.94;;;5.42;69.25
75146;BME280;63641;46.526;24.612;2023-04-24T02:55:29;96786.00;;;5.41;69.40
75146;BME280;63641;46.526;24.612;2023-04-24T02:57:56;96779.31;;;5.39;69.22
75146;BME280;63641;46.526;24.612;2023-04-24T03:00:23;96785.47;;;5.39;69.29
75146;BME280;63641;46.526;24.612;2023-04-24T03:02:50;96786.84;;;5.42;69.45
75146;BME280;63641;46.526;24.612;2023-04-24T03:05:17;96786.53;;;5.38;69.69
75146;BME280;63641;46.526;24.612;2023-04-24T03:07:43;96783.06;;;5.38;69.60
75146;BME280;63641;46.526;24.612;2023-04-24T03:10:12;96784.91;;;5.37;69.63
75146;BME280;63641;46.526;24.612;2023-04-24T03:12:38;96774.91;;;5.22;69.56
75146;BME280;63641;46.526;24.612;2023-04-24T03:15:06;96783.28;;;5.31;69.51
75146;BME280;63641;46.526;24.612;2023-04-24T03:17:33;96788.38;;;5.27;69.61
75146;BME280;63641;46.526;24.612;2023-04-24T03:19:59;96788.06;;;5.24;69.60
75146;BME280;63641;46.526;24.612;2023-04-24T03:22:26;96790.19;;;5.22;69.64
75146;BME280;63641;46.526;24.612;2023-04-24T03:24:54;96795.84;;;5.20;69.78
75146;BME280;63641;46.526;24.612;2023-04-24T03:27:21;96795.03;;;5.20;69.70
75146;BME280;63641;46.526;24.612;2023-04-24T03:29:48;96785.91;;;5.16;69.81
75146;BME280;63641;46.526;24.612;2023-04-24T03:32:14;96788.31;;;5.17;69.67
75146;BME280;63641;46.526;24.612;2023-04-24T03:34:41;96785.03;;;5.10;69.80
75146;BME280;63641;46.526;24.612;2023-04-24T03:37:08;96791.78;;;5.13;69.83
75146;BME280;63641;46.526;24.612;2023-04-24T03:39:34;96798.19;;;5.12;69.67
75146;BME280;63641;46.526;24.612;2023-04-24T03:42:01;96793.34;;;5.08;69.86
75146;BME280;63641;46.526;24.612;2023-04-24T03:44:28;96797.09;;;5.07;69.93
75146;BME280;63641;46.526;24.612;2023-04-24T03:46:55;96790.13;;;5.06;69.58
75146;BME280;63641;46.526;24.612;2023-04-24T03:49:22;96804.31;;;5.07;69.87
75146;BME280;63641;46.526;24.612;2023-04-24T03:51:49;96797.34;;;5.06;69.72
75146;BME280;63641;46.526;24.612;2023-04-24T03:54:15;96804.09;;;5.08;69.96
75146;BME280;63641;46.526;24.612;2023-04-24T03:56:42;96795.97;;;4.98;69.77
75146;BME280;63641;46.526;24.612;2023-04-24T03:59:10;96788.44;;;4.95;70.20
75146;BME280;63641;46.526;24.612;2023-04-24T04:01:37;96785.47;;;4.92;70.22
75146;BME280;63641;46.526;24.612;2023-04-24T04:04:04;96808.59;;;5.03;69.95
75146;BME280;63641;46.526;24.612;2023-04-24T04:06:32;96807.22;;;5.00;70.09
75146;BME280;63641;46.526;24.612;2023-04-24T04:09:00;96807.78;;;5.02;70.28
75146;BME280;63641;46.526;24.612;2023-04-24T04:11:26;96815.84;;;5.07;70.31
75146;BME280;63641;46.526;24.612;2023-04-24T04:13:53;96807.31;;;5.11;70.51
75146;BME280;63641;46.526;24.612;2023-04-24T04:16:20;96800.84;;;5.06;70.67
75146;BME280;63641;46.526;24.612;2023-04-24T04:18:47;96801.13;;;5.10;70.59
75146;BME280;63641;46.526;24.612;2023-04-24T04:21:13;96809.19;;;5.15;70.48
75146;BME280;63641;46.526;24.612;2023-04-24T04:23:41;96789.34;;;5.11;70.76
75146;BME280;63641;46.526;24.612;2023-04-24T04:26:08;96801.44;;;5.19;70.64
75146;BME280;63641;46.526;24.612;2023-04-24T04:28:34;96806.84;;;5.24;70.71
75146;BME280;63641;46.526;24.612;2023-04-24T04:31:01;96803.66;;;5.27;71.11
75146;BME280;63641;46.526;24.612;2023-04-24T04:33:28;96796.94;;;5.29;70.91
75146;BME280;63641;46.526;24.612;2023-04-24T04:35:55;96797.28;;;5.38;71.24
75146;BME280;63641;46.526;24.612;2023-04-24T04:38:23;96799.69;;;5.45;71.22
75146;BME280;63641;46.526;24.612;2023-04-24T04:40:51;96787.66;;;5.47;71.44
75146;BME280;63641;46.526;24.612;2023-04-24T04:43:18;96786.34;;;5.55;71.27
75146;BME280;63641;46.526;24.612;2023-04-24T04:45:45;96792.53;;;5.61;71.35
75146;BME280;63641;46.526;24.612;2023-04-24T04:48:12;96804.41;;;5.75;71.55
75146;BME280;63641;46.526;24.612;2023-04-24T04:50:40;96792.59;;;5.81;71.51
75146;BME280;63641;46.526;24.612;2023-04-24T04:53:07;96787.50;;;5.85;71.56
75146;BME280;63641;46.526;24.612;2023-04-24T04:55:33;96793.75;;;5.95;71.73
75146;BME280;63641;46.526;24.612;2023-04-24T04:58:00;96798.59;;;6.03;72.07
75146;BME280;63641;46.526;24.612;2023-04-24T05:00:31;96792.75;;;6.12;72.16
75146;BME280;63641;46.526;24.612;2023-04-24T05:03:02;96790.06;;;6.17;72.24
75146;BME280;63641;46.526;24.612;2023-04-24T05:05:45;96786.31;;;6.28;72.02
75146;BME280;63641;46.526;24.612;2023-04-24T05:08:12;96790.38;;;6.41;72.35
75146;BME280;63641;46.526;24.612;2023-04-24T05:10:52;96791.16;;;6.51;72.14
75146;BME280;63641;46.526;24.612;2023-04-24T05:13:19;96782.84;;;6.63;72.33
75146;BME280;63641;46.526;24.612;2023-04-24T05:15:57;96779.88;;;6.75;72.08
75146;BME280;63641;46.526;24.612;2023-04-24T05:18:24;96779.59;;;6.87;72.14
75146;BME280;63641;46.526;24.612;2023-04-24T05:20:51;96780.91;;;6.99;72.16
75146;BME280;63641;46.526;24.612;2023-04-24T05:23:18;96778.78;;;7.12;72.00
75146;BME280;63641;46.526;24.612;2023-04-24T05:25:45;96768.00;;;7.22;71.95
75146;BME280;63641;46.526;24.612;2023-04-24T05:28:12;96780.84;;;7.40;72.08
75146;BME280;63641;46.526;24.612;2023-04-24T05:30:39;96782.44;;;7.52;72.03
75146;BME280;63641;46.526;24.612;2023-04-24T05:33:06;96776.47;;;7.60;71.98
75146;BME280;63641;46.526;24.612;2023-04-24T05:35:33;96777.75;;;7.72;71.67
75146;BME280;63641;46.526;24.612;2023-04-24T05:37:59;96784.44;;;7.80;71.75
75146;BME280;63641;46.526;24.612;2023-04-24T05:40:26;96777.41;;;7.89;71.74
75146;BME280;63641;46.526;24.612;2023-04-24T05:42:53;96777.91;;;7.96;71.80
75146;BME280;63641;46.526;24.612;2023-04-24T05:45:20;96771.16;;;8.04;71.77
75146;BME280;63641;46.526;24.612;2023-04-24T05:47:47;96768.66;;;8.13;71.87
75146;BME280;63641;46.526;24.612;2023-04-24T05:50:13;96768.06;;;8.21;71.82
75146;BME280;63641;46.526;24.612;2023-04-24T05:52:41;96752.13;;;8.24;71.83
75146;BME280;63641;46.526;24.612;2023-04-24T05:55:08;96760.44;;;8.38;71.46
75146;BME280;63641;46.526;24.612;2023-04-24T05:57:35;96754.72;;;8.45;71.23
75146;BME280;63641;46.526;24.612;2023-04-24T06:00:02;96758.41;;;8.59;71.15
75146;BME280;63641;46.526;24.612;2023-04-24T06:02:29;96753.72;;;8.70;70.80
75146;BME280;63641;46.526;24.612;2023-04-24T06:04:59;96761.13;;;8.88;70.34
75146;BME280;63641;46.526;24.612;2023-04-24T06:07:26;96755.56;;;9.04;69.71
75146;BME280;63641;46.526;24.612;2023-04-24T06:09:53;96762.38;;;9.25;69.30
75146;BME280;63641;46.526;24.612;2023-04-24T06:12:19;96753.53;;;9.43;68.69
75146;BME280;63641;46.526;24.612;2023-04-24T06:14:46;96752.78;;;9.62;68.33
75146;BME280;63641;46.526;24.612;2023-04-24T06:17:13;96751.47;;;9.78;67.76
75146;BME280;63641;46.526;24.612;2023-04-24T06:19:40;96752.91;;;9.95;67.64
75146;BME280;63641;46.526;24.612;2023-04-24T06:22:07;96746.47;;;10.09;67.44
75146;BME280;63641;46.526;24.612;2023-04-24T06:24:36;96744.91;;;10.27;66.68
75146;BME280;63641;46.526;24.612;2023-04-24T06:27:03;96747.88;;;10.45;66.28
75146;BME280;63641;46.526;24.612;2023-04-24T06:29:29;96739.50;;;10.60;65.78
75146;BME280;63641;46.526;24.612;2023-04-24T06:31:56;96751.03;;;10.84;65.63
75146;BME280;63641;46.526;24.612;2023-04-24T06:34:23;96744.44;;;11.04;65.36
75146;BME280;63641;46.526;24.612;2023-04-24T06:36:50;96743.28;;;11.24;64.79
75146;BME280;63641;46.526;24.612;2023-04-24T06:39:17;96746.78;;;11.52;64.00
75146;BME280;63641;46.526;24.612;2023-04-24T06:41:43;96735.88;;;11.71;63.49
75146;BME280;63641;46.526;24.612;2023-04-24T06:44:10;96738.56;;;11.99;63.35
75146;BME280;63641;46.526;24.612;2023-04-24T06:46:37;96739.59;;;12.25;62.59
75146;BME280;63641;46.526;24.612;2023-04-24T06:49:07;96747.03;;;12.56;61.80
75146;BME280;63641;46.526;24.612;2023-04-24T06:51:33;96745.47;;;12.86;60.99
75146;BME280;63641;46.526;24.612;2023-04-24T06:54:01;96744.69;;;13.17;60.04
75146;BME280;63641;46.526;24.612;2023-04-24T06:56:28;96742.28;;;13.46;59.28
75146;BME280;63641;46.526;24.612;2023-04-24T06:58:57;96735.69;;;13.78;58.21
75146;BME280;63641;46.526;24.612;2023-04-24T07:01:24;96731.75;;;14.11;57.51
75146;BME280;63641;46.526;24.612;2023-04-24T07:03:52;96732.09;;;14.44;57.41
75146;BME280;63641;46.526;24.612;2023-04-24T07:06:19;96735.94;;;14.78;56.28
75146;BME280;63641;46.526;24.612;2023-04-24T07:08:49;96729.66;;;15.03;55.52
75146;BME280;63641;46.526;24.612;2023-04-24T07:11:15;96726.84;;;15.29;54.18
75146;BME280;63641;46.526;24.612;2023-04-24T07:13:42;96726.72;;;15.55;53.53
75146;BME280;63641;46.526;24.612;2023-04-24T07:16:10;96728.06;;;15.87;53.50
75146;BME280;63641;46.526;24.612;2023-04-24T07:18:38;96714.25;;;16.13;53.42
75146;BME280;63641;46.526;24.612;2023-04-24T07:21:06;96719.16;;;16.41;52.96
75146;BME280;63641;46.526;24.612;2023-04-24T07:23:33;96722.81;;;16.66;51.22
75146;BME280;63641;46.526;24.612;2023-04-24T07:26:00;96715.81;;;16.77;50.55
75146;BME280;63641;46.526;24.612;2023-04-24T07:28:27;96709.16;;;16.99;49.80
75146;BME280;63641;46.526;24.612;2023-04-24T07:30:57;96718.56;;;17.23;49.15
75146;BME280;63641;46.526;24.612;2023-04-24T07:33:28;96714.34;;;17.37;48.36
75146;BME280;63641;46.526;24.612;2023-04-24T07:35:55;96721.34;;;17.59;48.71
75146;BME280;63641;46.526;24.612;2023-04-24T07:38:22;96711.09;;;17.81;48.43
75146;BME280;63641;46.526;24.612;2023-04-24T07:40:49;96710.63;;;18.03;47.24
75146;BME280;63641;46.526;24.612;2023-04-24T07:43:15;96719.84;;;18.23;46.73
75146;BME280;63641;46.526;24.612;2023-04-24T07:45:42;96704.97;;;18.37;45.55
75146;BME280;63641;46.526;24.612;2023-04-24T07:48:09;96725.72;;;18.50;45.10
75146;BME280;63641;46.526;24.612;2023-04-24T07:50:36;96713.47;;;18.59;44.96
75146;BME280;63641;46.526;24.612;2023-04-24T07:53:03;96717.06;;;18.76;44.59
75146;BME280;63641;46.526;24.612;2023-04-24T07:55:30;96703.31;;;18.88;44.96
75146;BME280;63641;46.526;24.612;2023-04-24T07:57:57;96713.78;;;19.14;43.91
75146;BME280;63641;46.526;24.612;2023-04-24T08:00:28;96704.63;;;19.22;42.75
75146;BME280;63641;46.526;24.612;2023-04-24T08:02:55;96705.25;;;19.31;42.50
75146;BME280;63641;46.526;24.612;2023-04-24T08:05:22;96693.47;;;19.47;41.96
75146;BME280;63641;46.526;24.612;2023-04-24T08:07:52;96692.44;;;19.51;41.68
75146;BME280;63641;46.526;24.612;2023-04-24T08:10:20;96707.38;;;19.54;40.79
75146;BME280;63641;46.526;24.612;2023-04-24T08:12:46;96697.97;;;19.55;40.33
75146;BME280;63641;46.526;24.612;2023-04-24T08:15:13;96683.03;;;19.52;40.29
75146;BME280;63641;46.526;24.612;2023-04-24T08:17:40;96682.03;;;19.61;39.77
75146;BME280;63641;46.526;24.612;2023-04-24T08:20:09;96694.66;;;19.77;39.11
75146;BME280;63641;46.526;24.612;2023-04-24T08:22:40;96686.31;;;19.74;38.84
75146;BME280;63641;46.526;24.612;2023-04-24T08:25:08;96685.97;;;19.75;38.67
75146;BME280;63641;46.526;24.612;2023-04-24T08:27:35;96677.28;;;19.73;38.40
75146;BME280;63641;46.526;24.612;2023-04-24T08:30:04;96687.97;;;19.94;38.15
75146;BME280;63641;46.526;24.612;2023-04-24T08:32:31;96685.91;;;20.07;37.96
75146;BME280;63641;46.526;24.612;2023-04-24T08:34:58;96678.63;;;20.15;37.65
75146;BME280;63641;46.526;24.612;2023-04-24T08:37:26;96666.38;;;20.12;37.23
75146;BME280;63641;46.526;24.612;2023-04-24T08:39:53;96673.69;;;20.24;37.16
75146;BME280;63641;46.526;24.612;2023-04-24T08:42:21;96665.03;;;20.22;37.21
75146;BME280;63641;46.526;24.612;2023-04-24T08:44:49;96673.22;;;20.38;37.35
75146;BME280;63641;46.526;24.612;2023-04-24T08:47:16;96671.13;;;20.50;37.09
75146;BME280;63641;46.526;24.612;2023-04-24T08:49:44;96665.72;;;20.54;36.91
75146;BME280;63641;46.526;24.612;2023-04-24T08:52:13;96671.13;;;20.50;36.99
75146;BME280;63641;46.526;24.612;2023-04-24T08:54:40;96668.03;;;20.52;37.31
75146;BME280;63641;46.526;24.612;2023-04-24T08:57:10;96654.84;;;20.61;37.33
75146;BME280;63641;46.526;24.612;2023-04-24T08:59:38;96666.84;;;20.72;36.56
75146;BME280;63641;46.526;24.612;2023-04-24T09:02:06;96662.28;;;20.80;36.92
75146;BME280;63641;46.526;24.612;2023-04-24T09:04:37;96655.78;;;20.88;36.43
75146;BME280;63641;46.526;24.612;2023-04-24T09:07:06;96649.31;;;21.00;36.28
75146;BME280;63641;46.526;24.612;2023-04-24T09:09:34;96649.56;;;21.14;35.75
75146;BME280;63641;46.526;24.612;2023-04-24T09:12:02;96652.78;;;21.20;35.87
75146;BME280;63641;46.526;24.612;2023-04-24T09:14:31;96649.88;;;21.32;35.76
75146;BME280;63641;46.526;24.612;2023-04-24T09:16:58;96652.00;;;21.42;35.53
75146;BME280;63641;46.526;24.612;2023-04-24T09:19:25;96652.25;;;21.57;35.51
75146;BME280;63641;46.526;24.612;2023-04-24T09:21:52;96630.72;;;21.62;35.51
75146;BME280;63641;46.526;24.612;2023-04-24T09:24:20;96634.78;;;21.72;36.03
75146;BME280;63641;46.526;24.612;2023-04-24T09:26:57;96635.72;;;21.83;35.38
75146;BME280;63641;46.526;24.612;2023-04-24T09:29:36;96632.13;;;21.79;34.87
75146;BME280;63641;46.526;24.612;2023-04-24T09:32:22;96636.28;;;21.66;34.72
75146;BME280;63641;46.526;24.612;2023-04-24T09:35:10;96629.22;;;21.68;34.83
75146;BME280;63641;46.526;24.612;2023-04-24T09:37:39;96620.28;;;21.75;35.04
75146;BME280;63641;46.526;24.612;2023-04-24T09:42:34;96610.31;;;21.93;34.90
75146;BME280;63641;46.526;24.612;2023-04-24T09:45:01;96619.16;;;22.06;34.24
75146;BME280;63641;46.526;24.612;2023-04-24T09:47:40;96614.84;;;22.09;33.68
75146;BME280;63641;46.526;24.612;2023-04-24T09:52:46;96614.00;;;22.05;33.02
75146;BME280;63641;46.526;24.612;2023-04-24T09:55:19;96610.31;;;21.93;33.33
75146;BME280;63641;46.526;24.612;2023-04-24T09:57:50;96598.88;;;21.91;34.16
75146;BME280;63641;46.526;24.612;2023-04-24T10:00:21;96586.03;;;22.03;34.19
75146;BME280;63641;46.526;24.612;2023-04-24T10:02:54;96587.09;;;22.21;33.67
75146;BME280;63641;46.526;24.612;2023-04-24T10:05:29;96593.19;;;22.37;33.71
75146;BME280;63641;46.526;24.612;2023-04-24T10:08:08;96594.47;;;22.47;33.14
75146;BME280;63641;46.526;24.612;2023-04-24T10:10:39;96580.69;;;22.47;32.66
75146;BME280;63641;46.526;24.612;2023-04-24T10:13:07;96577.19;;;22.50;32.50
75146;BME280;63641;46.526;24.612;2023-04-24T10:15:36;96576.50;;;22.60;31.89
75146;BME280;63641;46.526;24.612;2023-04-24T10:18:04;96576.97;;;22.66;31.97
75146;BME280;63641;46.526;24.612;2023-04-24T10:20:34;96569.13;;;22.72;31.65
75146;BME280;63641;46.526;24.612;2023-04-24T10:23:02;96574.28;;;22.73;31.77
75146;BME280;63641;46.526;24.612;2023-04-24T10:25:31;96562.09;;;22.78;31.71
75146;BME280;63641;46.526;24.612;2023-04-24T10:28:00;96564.13;;;22.84;31.55
75146;BME280;63641;46.526;24.612;2023-04-24T10:30:28;96558.31;;;22.93;31.50
75146;BME280;63641;46.526;24.612;2023-04-24T10:32:55;96553.25;;;22.99;31.47
75146;BME280;63641;46.526;24.612;2023-04-24T10:35:23;96563.13;;;23.00;32.02
75146;BME280;63641;46.526;24.612;2023-04-24T10:38:11;96553.31;;;23.06;31.42
75146;BME280;63641;46.526;24.612;2023-04-24T10:40:39;96547.78;;;23.02;31.63
75146;BME280;63641;46.526;24.612;2023-04-24T10:43:07;96548.19;;;23.08;32.24
75146;BME280;63641;46.526;24.612;2023-04-24T10:45:38;96543.19;;;23.21;32.00
75146;BME280;63641;46.526;24.612;2023-04-24T10:48:07;96525.44;;;23.22;31.42
75146;BME280;63641;46.526;24.612;2023-04-24T10:50:48;96539.75;;;23.38;31.23
75146;BME280;63641;46.526;24.612;2023-04-24T10:53:22;96533.09;;;23.43;30.46
75146;BME280;63641;46.526;24.612;2023-04-24T10:56:04;96537.84;;;23.46;29.91
75146;BME280;63641;46.526;24.612;2023-04-24T10:58:42;96524.09;;;23.53;29.35
75146;BME280;63641;46.526;24.612;2023-04-24T11:01:34;96535.16;;;23.60;29.13
75146;BME280;63641;46.526;24.612;2023-04-24T11:04:04;96524.03;;;23.46;28.89
75146;BME280;63641;46.526;24.612;2023-04-24T11:06:36;96520.13;;;23.50;29.42
75146;BME280;63641;46.526;24.612;2023-04-24T11:09:06;96516.19;;;23.51;29.56
75146;BME280;63641;46.526;24.612;2023-04-24T11:11:35;96510.69;;;23.55;29.41
75146;BME280;63641;46.526;24.612;2023-04-24T11:14:05;96509.06;;;23.50;29.36
75146;BME280;63641;46.526;24.612;2023-04-24T11:16:44;96512.56;;;23.40;29.45
75146;BME280;63641;46.526;24.612;2023-04-24T11:24:48;96496.56;;;23.71;29.79
75146;BME280;63641;46.526;24.612;2023-04-24T11:27:18;96497.00;;;23.73;29.49
75146;BME280;63641;46.526;24.612;2023-04-24T11:37:34;96489.56;;;23.91;29.38
75146;BME280;63641;46.526;24.612;2023-04-24T11:40:02;96476.13;;;23.82;29.00
75146;BME280;63641;46.526;24.612;2023-04-24T11:42:37;96478.53;;;23.91;28.79
75146;BME280;63641;46.526;24.612;2023-04-24T11:47:35;96481.66;;;23.82;27.79
75146;BME280;63641;46.526;24.612;2023-04-24T11:50:04;96473.72;;;23.77;27.87
75146;BME280;63641;46.526;24.612;2023-04-24T11:52:32;96481.22;;;23.73;27.56
75146;BME280;63641;46.526;24.612;2023-04-24T11:54:59;96457.94;;;23.74;27.99
75146;BME280;63641;46.526;24.612;2023-04-24T11:57:27;96465.84;;;23.79;28.18
75146;BME280;63641;46.526;24.612;2023-04-24T12:00:01;96459.56;;;23.82;28.34
75146;BME280;63641;46.526;24.612;2023-04-24T12:02:31;96447.69;;;23.78;28.39
75146;BME280;63641;46.526;24.612;2023-04-24T12:04:57;96458.72;;;23.78;28.49
75146;BME280;63641;46.526;24.612;2023-04-24T12:07:25;96449.63;;;23.71;28.58
75146;BME280;63641;46.526;24.612;2023-04-24T12:09:59;96447.66;;;23.68;28.13
75146;BME280;63641;46.526;24.612;2023-04-24T12:12:29;96450.72;;;23.59;27.75
75146;BME280;63641;46.526;24.612;2023-04-24T12:14:57;96438.06;;;23.47;27.82
75146;BME280;63641;46.526;24.612;2023-04-24T12:20:03;96428.50;;;23.34;27.71
75146;BME280;63641;46.526;24.612;2023-04-24T12:22:50;96447.38;;;23.21;28.06
75146;BME280;63641;46.526;24.612;2023-04-24T12:25:18;96445.28;;;23.04;28.42
75146;BME280;63641;46.526;24.612;2023-04-24T12:27:45;96433.84;;;22.98;28.38
75146;BME280;63641;46.526;24.612;2023-04-24T12:30:15;96431.44;;;22.93;28.61
75146;BME280;63641;46.526;24.612;2023-04-24T12:32:43;96427.03;;;22.88;28.95
75146;BME280;63641;46.526;24.612;2023-04-24T12:35:10;96427.81;;;22.85;29.04
75146;BME280;63641;46.526;24.612;2023-04-24T12:37:37;96419.53;;;22.85;29.14
75146;BME280;63641;46.526;24.612;2023-04-24T12:40:07;96421.09;;;22.83;28.99
75146;BME280;63641;46.526;24.612;2023-04-24T12:42:36;96410.81;;;22.76;28.79
75146;BME280;63641;46.526;24.612;2023-04-24T12:45:07;96402.84;;;22.67;28.97
75146;BME280;63641;46.526;24.612;2023-04-24T12:47:35;96410.00;;;22.72;28.62
75146;BME280;63641;46.526;24.612;2023-04-24T12:50:03;96406.00;;;22.66;28.27
75146;BME280;63641;46.526;24.612;2023-04-24T12:52:30;96406.88;;;22.77;27.94
75146;BME280;63641;46.526;24.612;2023-04-24T12:54:59;96408.22;;;22.94;27.61
75146;BME280;63641;46.526;24.612;2023-04-24T12:57:28;96401.53;;;22.99;27.61
75146;BME280;63641;46.526;24.612;2023-04-24T12:59:57;96399.97;;;23.05;27.59
75146;BME280;63641;46.526;24.612;2023-04-24T13:02:24;96398.47;;;23.18;27.35
75146;BME280;63641;46.526;24.612;2023-04-24T13:04:52;96390.66;;;23.27;27.35
75146;BME280;63641;46.526;24.612;2023-04-24T13:07:19;96382.72;;;23.22;27.46
75146;BME280;63641;46.526;24.612;2023-04-24T13:09:47;96375.63;;;23.21;27.89
75146;BME280;63641;46.526;24.612;2023-04-24T13:12:15;96379.53;;;23.13;28.30
75146;BME280;63641;46.526;24.612;2023-04-24T13:14:41;96382.09;;;22.84;28.13
75146;BME280;63641;46.526;24.612;2023-04-24T13:17:08;96377.88;;;22.50;28.41
75146;BME280;63641;46.526;24.612;2023-04-24T13:19:42;96394.59;;;22.23;28.69
75146;BME280;63641;46.526;24.612;2023-04-24T13:22:10;96380.25;;;22.07;29.12
75146;BME280;63641;46.526;24.612;2023-04-24T13:24:38;96387.88;;;21.83;29.40